createdAt,value
2018-01-08T00:00:55.604Z,9.38
2018-01-08T00:03:24.264Z,9.68
2018-01-08T00:05:52.132Z,10.10
2018-01-08T00:08:19.999Z,13.43
2018-01-08T00:10:47.867Z,8.65
2018-01-08T00:13:15.732Z,11.18
2018-01-08T00:15:43.600Z,10.05
2018-01-08T00:18:11.469Z,9.60
2018-01-08T00:20:39.336Z,8.55
2018-01-08T00:23:07.203Z,8.50
2018-01-08T00:25:34.925Z,9.88
2018-01-08T00:28:02.641Z,10.70
2018-01-08T00:30:30.363Z,10.88
2018-01-08T00:32:58.080Z,9.95
2018-01-08T00:35:25.796Z,10.65
2018-01-08T00:37:53.588Z,11.32
2018-01-08T00:40:21.454Z,9.98
2018-01-08T00:42:49.325Z,10.05
2018-01-08T00:45:17.189Z,9.75
2018-01-08T00:47:45.057Z,10.18
2018-01-08T00:50:12.924Z,10.68
2018-01-08T00:52:40.793Z,9.75
2018-01-08T00:55:08.659Z,9.27
2018-01-08T00:57:36.526Z,8.55
2018-01-08T01:00:04.394Z,9.20
2018-01-08T01:02:32.261Z,9.85
2018-01-08T01:05:00.131Z,9.32
2018-01-08T01:07:27.995Z,10.90
2018-01-08T01:09:55.866Z,10.20
2018-01-08T01:12:23.730Z,10.13
2018-01-08T01:14:51.598Z,8.82
2018-01-08T01:17:19.394Z,9.85
2018-01-08T01:19:47.097Z,8.95
2018-01-08T01:22:14.799Z,9.20
2018-01-08T01:24:42.657Z,8.57
2018-01-08T01:27:10.359Z,8.80
2018-01-08T01:29:39.005Z,9.50
2018-01-08T01:32:06.873Z,8.23
2018-01-08T01:34:34.740Z,10.48
2018-01-08T01:37:02.607Z,9.13
2018-01-08T01:39:30.400Z,9.25
2018-01-08T01:41:58.241Z,9.07
2018-01-08T01:44:26.107Z,9.73
2018-01-08T01:46:53.975Z,10.55
2018-01-08T01:49:21.842Z,12.68
2018-01-08T01:51:49.709Z,11.45
2018-01-08T01:54:17.577Z,8.98
2018-01-08T01:56:45.443Z,9.15
2018-01-08T01:59:13.145Z,11.57
2018-01-08T02:01:41.623Z,10.07
2018-01-08T02:04:10.176Z,9.18
2018-01-08T02:06:38.040Z,12.43
2018-01-08T02:09:05.906Z,9.38
2018-01-08T02:11:33.775Z,10.15
2018-01-08T02:14:01.540Z,8.95
2018-01-08T02:16:29.407Z,7.95
2018-01-08T02:18:57.273Z,8.50
2018-01-08T02:21:24.997Z,8.80
2018-01-08T02:23:52.709Z,11.68
2018-01-08T02:26:20.420Z,9.02
2018-01-08T02:28:48.116Z,8.85
2018-01-08T02:31:15.814Z,10.57
2018-01-08T02:33:43.543Z,13.43
2018-01-08T02:36:11.429Z,11.43
2018-01-08T02:38:39.138Z,11.05
2018-01-08T02:41:07.877Z,9.93
2018-01-08T02:43:35.577Z,11.75
2018-01-08T02:46:04.225Z,11.57
2018-01-08T02:48:32.091Z,11.35
2018-01-08T02:50:59.964Z,9.82
2018-01-08T02:53:27.826Z,9.55
2018-01-08T02:55:55.692Z,12.15
2018-01-08T02:58:23.561Z,12.45
2018-01-08T03:00:51.428Z,10.13
2018-01-08T03:03:19.295Z,10.43
2018-01-08T03:05:47.165Z,8.80
2018-01-08T03:08:15.032Z,9.43
2018-01-08T03:10:42.899Z,14.52
2018-01-08T03:13:10.766Z,11.30
2018-01-08T03:15:38.631Z,10.70
2018-01-08T03:18:06.500Z,11.07
2018-01-08T03:20:34.367Z,11.90
2018-01-08T03:23:02.236Z,12.00
2018-01-08T03:25:30.101Z,10.88
2018-01-08T03:27:57.969Z,11.20
2018-01-08T03:30:25.836Z,12.88
2018-01-08T03:32:53.706Z,12.27
2018-01-08T03:35:21.427Z,11.98
2018-01-08T03:37:49.139Z,13.68
2018-01-08T03:40:17.609Z,11.55
2018-01-08T03:42:45.479Z,10.55
2018-01-08T03:45:13.347Z,13.50
2018-01-08T03:47:41.213Z,15.23
2018-01-08T03:50:09.082Z,12.60
2018-01-08T03:52:36.950Z,12.10
2018-01-08T03:55:04.817Z,12.45
2018-01-08T03:57:32.683Z,14.55
2018-01-08T04:00:00.553Z,14.25
2018-01-08T04:02:28.420Z,15.73
2018-01-08T04:04:56.285Z,16.73
2018-01-08T04:07:24.001Z,12.37
2018-01-08T04:09:52.637Z,13.55
2018-01-08T04:12:20.501Z,16.67
2018-01-08T04:14:48.369Z,13.98
2018-01-08T04:17:16.236Z,13.02
2018-01-08T04:19:44.104Z,19.92
2018-01-08T04:22:11.972Z,13.93
2018-01-08T04:24:39.838Z,12.65
2018-01-08T04:27:07.706Z,13.05
2018-01-08T04:29:35.573Z,12.88
2018-01-08T04:32:03.440Z,13.35
2018-01-08T04:34:31.172Z,12.05
2018-01-08T04:36:58.970Z,14.77
2018-01-08T04:39:26.836Z,12.32
2018-01-08T04:41:54.705Z,13.93
2018-01-08T04:44:22.571Z,11.65
2018-01-08T04:46:50.439Z,15.23
2018-01-08T04:49:18.307Z,17.27
2018-01-08T04:51:46.174Z,15.45
2018-01-08T04:54:14.043Z,12.60
2018-01-08T04:56:41.911Z,12.18
2018-01-08T04:59:09.782Z,14.05
2018-01-08T05:01:37.644Z,15.35
2018-01-08T05:04:05.437Z,15.43
2018-01-08T05:06:33.275Z,13.73
2018-01-08T05:09:01.003Z,14.23
2018-01-08T05:11:28.737Z,12.73
2018-01-08T05:13:57.391Z,16.90
2018-01-08T05:16:26.871Z,16.87
2018-01-08T05:18:54.764Z,13.27
2018-01-08T05:21:22.504Z,15.20
2018-01-08T05:23:50.229Z,15.93
2018-01-08T05:26:18.876Z,17.48
2018-01-08T05:28:46.745Z,14.15
2018-01-08T05:31:14.545Z,16.80
2018-01-08T05:33:43.194Z,12.90
2018-01-08T05:36:11.062Z,20.12
2018-01-08T05:38:38.932Z,17.33
2018-01-08T05:41:06.649Z,14.70
2018-01-08T05:43:34.464Z,17.67
2018-01-08T05:46:02.327Z,18.50
2018-01-08T05:48:30.193Z,20.67
2018-01-08T05:50:58.061Z,20.08
2018-01-08T05:53:25.928Z,18.25
2018-01-08T05:55:53.796Z,20.48
2018-01-08T05:58:21.662Z,18.87
2018-01-08T06:00:49.530Z,15.90
2018-01-08T06:03:17.400Z,20.40
2018-01-08T06:05:45.266Z,20.10
2018-01-08T06:08:13.134Z,18.65
2018-01-08T06:10:40.999Z,22.85
2018-01-08T06:13:08.867Z,21.85
2018-01-08T06:15:36.613Z,22.67
2018-01-08T06:18:04.334Z,20.40
2018-01-08T06:20:32.982Z,20.42
2018-01-08T06:23:00.698Z,19.37
2018-01-08T06:25:28.511Z,20.35
2018-01-08T06:27:56.379Z,22.00
2018-01-08T06:30:24.245Z,21.37
2018-01-08T06:32:52.166Z,23.05
2018-01-08T06:35:20.799Z,23.98
2018-01-08T06:37:48.665Z,26.25
2018-01-08T06:40:16.534Z,22.60
2018-01-08T06:42:44.403Z,18.25
2018-01-08T06:45:12.271Z,20.90
2018-01-08T06:47:40.135Z,21.12
2018-01-08T06:50:07.937Z,21.10
2018-01-08T06:52:36.621Z,25.25
2018-01-08T06:55:05.274Z,24.02
2018-01-08T06:57:33.142Z,20.83
2018-01-08T07:00:01.008Z,22.85
2018-01-08T07:02:28.880Z,27.52
2018-01-08T07:04:57.562Z,24.77
2018-01-08T07:07:25.429Z,24.48
2018-01-08T07:09:53.297Z,26.02
2018-01-08T07:12:21.164Z,26.33
2018-01-08T07:14:49.032Z,25.02
2018-01-08T07:17:16.900Z,25.27
2018-01-08T07:19:44.767Z,27.48
2018-01-08T07:22:12.634Z,26.85
2018-01-08T07:24:40.501Z,21.35
2018-01-08T07:27:08.369Z,24.12
2018-01-08T07:29:36.235Z,22.55
2018-01-08T07:32:04.103Z,26.08
2018-01-08T07:34:31.974Z,26.42
2018-01-08T07:36:59.837Z,26.15
2018-01-08T07:39:27.706Z,22.45
2018-01-08T07:41:55.573Z,25.15
2018-01-08T07:44:23.439Z,25.45
2018-01-08T07:46:51.309Z,25.62
2018-01-08T07:49:19.174Z,26.77
2018-01-08T07:51:47.043Z,22.08
2018-01-08T07:54:14.911Z,26.20
2018-01-08T07:56:42.775Z,26.05
2018-01-08T07:59:10.643Z,26.23
2018-01-08T08:01:38.510Z,25.08
2018-01-08T08:04:06.378Z,22.15
2018-01-08T08:06:34.095Z,23.52
2018-01-08T08:09:02.593Z,18.77
2018-01-08T08:11:30.317Z,20.48
2018-01-08T08:13:58.155Z,21.42
2018-01-08T08:16:26.023Z,20.62
2018-01-08T08:18:53.890Z,20.42
2018-01-08T08:21:21.756Z,27.83
2018-01-08T08:23:49.624Z,21.65
2018-01-08T08:26:18.310Z,22.33
2018-01-08T08:28:46.177Z,25.67
2018-01-08T08:31:14.045Z,22.35
2018-01-08T08:33:41.914Z,25.65
2018-01-08T08:36:09.779Z,21.85
2018-01-08T08:38:37.647Z,21.10
2018-01-08T08:41:05.516Z,22.27
2018-01-08T08:43:33.382Z,23.10
2018-01-08T08:46:01.249Z,23.20
2018-01-08T08:48:29.116Z,23.55
2018-01-08T08:50:56.985Z,22.15
2018-01-08T08:53:24.852Z,22.77
2018-01-08T08:55:52.717Z,22.62
2018-01-08T08:58:20.585Z,22.52
2018-01-08T09:00:48.453Z,19.55
2018-01-08T09:03:16.250Z,22.48
2018-01-08T09:05:43.966Z,23.10
2018-01-08T09:08:11.850Z,19.48
2018-01-08T09:10:39.718Z,19.92
2018-01-08T09:13:07.584Z,21.70
2018-01-08T09:15:35.453Z,21.73
2018-01-08T09:18:03.319Z,22.52
2018-01-08T09:20:31.041Z,17.50
2018-01-08T09:22:58.772Z,20.50
2018-01-08T09:25:26.497Z,22.35
2018-01-08T09:27:54.388Z,18.05
2018-01-08T09:30:22.246Z,19.67
2018-01-08T09:32:50.113Z,21.27
2018-01-08T09:35:17.980Z,19.20
2018-01-08T09:37:45.848Z,15.75
2018-01-08T09:40:13.577Z,18.12
2018-01-08T09:42:41.303Z,19.75
2018-01-08T09:45:09.021Z,19.30
2018-01-08T09:47:36.806Z,17.30
2018-01-08T09:50:04.674Z,22.20
2018-01-08T09:52:32.541Z,22.13
2018-01-08T09:55:00.408Z,19.42
2018-01-08T09:57:28.277Z,20.05
2018-01-08T09:59:56.142Z,17.87
2018-01-08T10:02:23.500Z,19.40
2018-01-08T10:05:03.346Z,23.42
2018-01-08T10:07:43.911Z,16.52
2018-01-08T10:10:23.657Z,18.55
2018-01-08T10:13:03.404Z,23.92
2018-01-08T10:15:42.790Z,19.98
2018-01-08T10:18:23.406Z,19.73
2018-01-08T10:20:51.273Z,19.87
2018-01-08T10:23:19.141Z,19.42
2018-01-08T10:25:47.009Z,17.58
2018-01-08T10:28:14.876Z,22.70
2018-01-08T10:30:42.742Z,18.60
2018-01-08T10:33:10.542Z,25.73
2018-01-08T10:35:39.194Z,19.83
2018-01-08T10:38:07.061Z,17.65
2018-01-08T10:40:34.936Z,22.90
2018-01-08T10:43:08.438Z,22.10
2018-01-08T10:45:41.853Z,21.33
2018-01-08T10:48:15.426Z,21.40
2018-01-08T10:50:48.926Z,19.62
2018-01-08T10:53:18.433Z,16.20
2018-01-08T10:55:46.299Z,16.30
2018-01-08T10:58:14.168Z,19.23
2018-01-08T11:00:42.138Z,22.00
2018-01-08T11:03:15.636Z,20.73
2018-01-08T11:05:43.503Z,19.95
2018-01-08T11:08:11.242Z,18.80
2018-01-08T11:10:38.974Z,21.10
2018-01-08T11:13:07.461Z,22.37
2018-01-08T11:15:36.099Z,18.08
2018-01-08T11:18:03.966Z,19.02
2018-01-08T11:20:31.837Z,20.98
2018-01-08T11:22:59.701Z,21.70
2018-01-08T11:25:27.568Z,16.50
2018-01-08T11:27:55.482Z,17.55
2018-01-08T11:30:24.122Z,19.25
2018-01-08T11:32:51.989Z,19.42
2018-01-08T11:35:19.784Z,19.87
2018-01-08T11:37:48.442Z,16.55
2018-01-08T11:40:16.308Z,19.15
2018-01-08T11:42:44.175Z,21.42
2018-01-08T11:45:11.946Z,16.60
2018-01-08T11:47:39.808Z,16.65
2018-01-08T11:50:07.675Z,21.35
2018-01-08T11:52:35.542Z,20.05
2018-01-08T11:55:03.335Z,19.20
2018-01-08T11:57:31.106Z,20.20
2018-01-08T11:59:58.881Z,21.50
2018-01-08T12:02:27.422Z,21.92
2018-01-08T12:04:55.155Z,23.90
2018-01-08T12:07:22.922Z,20.05
2018-01-08T12:09:50.689Z,20.98
2018-01-08T12:12:18.457Z,17.77
2018-01-08T12:14:46.228Z,21.05
2018-01-08T12:17:13.997Z,20.40
2018-01-08T12:19:41.702Z,18.15
2018-01-08T12:22:09.643Z,23.50
2018-01-08T12:24:37.510Z,22.17
2018-01-08T12:27:05.377Z,19.60
2018-01-08T12:29:33.244Z,21.77
2018-01-08T12:32:01.114Z,20.70
2018-01-08T12:34:28.861Z,20.55
2018-01-08T12:36:56.589Z,18.17
2018-01-08T12:39:24.324Z,20.12
2018-01-08T12:41:52.174Z,22.13
2018-01-08T12:44:20.038Z,26.15
2018-01-08T12:46:47.906Z,19.00
2018-01-08T12:49:15.777Z,18.58
2018-01-08T12:51:43.641Z,22.65
2018-01-08T12:54:11.509Z,20.45
2018-01-08T12:56:39.375Z,19.17
2018-01-08T12:59:07.102Z,21.87
2018-01-08T13:01:34.874Z,19.42
2018-01-08T13:04:02.642Z,22.42
2018-01-08T13:06:30.414Z,20.90
2018-01-08T13:08:58.181Z,23.25
2018-01-08T13:11:25.945Z,19.85
2018-01-08T13:13:53.705Z,17.35
2018-01-08T13:16:21.441Z,18.62
2018-01-08T13:18:50.079Z,18.60
2018-01-08T13:21:17.799Z,17.40
2018-01-08T13:23:45.537Z,19.48
2018-01-08T13:26:13.294Z,17.77
2018-01-08T13:28:41.055Z,20.75
2018-01-08T13:31:08.784Z,19.87
2018-01-08T13:33:36.534Z,20.98
2018-01-08T13:36:04.283Z,17.77
2018-01-08T13:38:32.017Z,20.95
2018-01-08T13:40:59.797Z,22.58
2018-01-08T13:43:28.294Z,21.05
2018-01-08T13:45:56.840Z,17.37
2018-01-08T13:48:24.610Z,20.73
2018-01-08T13:50:52.398Z,17.73
2018-01-08T13:53:20.953Z,17.08
2018-01-08T13:55:48.746Z,17.15
2018-01-08T13:58:17.294Z,17.27
2018-01-08T14:00:45.078Z,20.60
2018-01-08T14:03:13.022Z,19.15
2018-01-08T14:05:40.889Z,25.05
2018-01-08T14:08:08.678Z,17.42
2018-01-08T14:10:36.442Z,17.17
2018-01-08T14:13:04.207Z,17.15
2018-01-08T14:15:31.970Z,14.68
2018-01-08T14:17:59.682Z,18.33
2018-01-08T14:20:27.427Z,19.98
2018-01-08T14:22:55.938Z,16.48
2018-01-08T14:25:23.654Z,20.05
2018-01-08T14:27:51.389Z,15.23
2018-01-08T14:30:19.103Z,17.50
2018-01-08T14:32:47.578Z,16.45
2018-01-08T14:35:16.061Z,18.37
2018-01-08T14:37:44.601Z,15.93
2018-01-08T14:40:12.344Z,17.42
2018-01-08T14:42:40.046Z,16.15
2018-01-08T14:45:07.792Z,16.05
2018-01-08T14:47:35.554Z,20.08
2018-01-08T14:50:03.269Z,18.20
2018-01-08T14:52:30.994Z,17.52
2018-01-08T14:54:58.746Z,19.70
2018-01-08T14:57:26.614Z,17.80
2018-01-08T14:59:54.353Z,16.62
2018-01-08T15:02:22.094Z,18.30
2018-01-08T15:04:49.834Z,18.37
2018-01-08T15:07:17.624Z,18.33
2018-01-08T15:09:45.439Z,20.58
2018-01-08T15:12:13.307Z,18.33
2018-01-08T15:14:41.173Z,21.00
2018-01-08T15:17:08.937Z,16.35
2018-01-08T15:19:36.703Z,18.83
2018-01-08T15:22:04.570Z,20.58
2018-01-08T15:24:32.365Z,16.62
2018-01-08T15:27:00.149Z,19.00
2018-01-08T15:29:28.634Z,19.20
2018-01-08T15:31:57.124Z,19.35
2018-01-08T15:34:24.841Z,18.98
2018-01-08T15:36:52.569Z,17.33
2018-01-08T15:39:20.299Z,17.33
2018-01-08T15:41:48.788Z,24.80
2018-01-08T15:44:17.263Z,15.27
2018-01-08T15:46:45.906Z,19.05
2018-01-08T15:49:13.631Z,16.23
2018-01-08T15:51:41.384Z,17.62
2018-01-08T15:54:10.021Z,17.87
2018-01-08T15:56:37.753Z,16.87
2018-01-08T15:59:05.550Z,17.10
2018-01-08T16:01:33.419Z,17.67
2018-01-08T16:04:01.137Z,18.83
2018-01-08T16:06:28.869Z,14.60
2018-01-08T16:08:56.585Z,16.12
2018-01-08T16:11:24.312Z,17.25
2018-01-08T16:13:52.796Z,14.07
2018-01-08T16:16:21.267Z,17.73
2018-01-08T16:18:48.985Z,15.88
2018-01-08T16:21:16.696Z,17.00
2018-01-08T16:23:45.160Z,16.33
2018-01-08T16:26:13.018Z,16.27
2018-01-08T16:28:40.881Z,16.80
2018-01-08T16:31:08.750Z,16.65
2018-01-08T16:33:36.448Z,15.43
2018-01-08T16:36:04.932Z,13.07
2018-01-08T16:38:33.590Z,17.83
2018-01-08T16:41:01.727Z,19.48
2018-01-08T16:43:30.201Z,12.68
2018-01-08T16:45:58.346Z,18.90
2018-01-08T16:51:01.451Z,17.92
2018-01-08T16:53:30.106Z,17.30
2018-01-08T16:55:59.210Z,17.17
2018-01-08T16:58:27.065Z,15.95
2018-01-08T17:00:54.789Z,14.00
2018-01-08T17:03:22.518Z,18.52
2018-01-08T17:05:50.246Z,16.05
2018-01-08T17:08:17.963Z,14.82
2018-01-08T17:10:46.443Z,17.73
2018-01-08T17:13:14.938Z,15.32
2018-01-08T17:15:42.655Z,16.83
2018-01-08T17:18:10.366Z,17.40
2018-01-08T17:20:38.090Z,18.17
2018-01-08T17:23:05.812Z,15.02
2018-01-08T17:25:33.534Z,18.12
2018-01-08T17:28:01.270Z,19.23
2018-01-08T17:30:28.994Z,17.15
2018-01-08T17:32:56.717Z,13.40
2018-01-08T17:35:24.449Z,17.02
2018-01-08T17:37:52.161Z,18.05
2018-01-08T17:40:20.643Z,14.35
2018-01-08T17:42:49.141Z,17.52
2018-01-08T17:45:16.864Z,21.25
2018-01-08T17:47:44.588Z,19.67
2018-01-08T17:50:12.302Z,20.52
2018-01-08T17:52:40.039Z,17.58
2018-01-08T17:55:07.757Z,20.73
2018-01-08T17:57:36.247Z,18.80
2018-01-08T18:00:04.054Z,18.65
2018-01-08T18:02:31.773Z,19.17
2018-01-08T18:04:59.490Z,22.83
2018-01-08T18:07:27.218Z,21.45
2018-01-08T18:09:54.929Z,20.60
2018-01-08T18:12:22.645Z,20.25
2018-01-08T18:14:50.439Z,23.95
2018-01-08T18:17:18.309Z,19.27
2018-01-08T18:19:46.173Z,23.62
2018-01-08T18:22:14.041Z,20.90
2018-01-08T18:24:41.754Z,25.62
2018-01-08T18:27:10.246Z,23.40
2018-01-08T18:29:38.052Z,33.72
2018-01-08T18:32:05.920Z,21.65
2018-01-08T18:34:33.634Z,23.38
2018-01-08T18:37:02.115Z,21.40
2018-01-08T18:39:30.751Z,29.10
2018-01-08T18:41:58.618Z,22.87
2018-01-08T18:44:26.485Z,22.33
2018-01-08T18:46:54.354Z,23.20
2018-01-08T18:49:22.220Z,23.23
2018-01-08T18:51:49.938Z,22.08
2018-01-08T18:54:17.678Z,27.00
2018-01-08T18:56:45.397Z,25.08
2018-01-08T18:59:13.118Z,27.20
2018-01-08T19:01:41.593Z,26.23
2018-01-08T19:04:10.087Z,26.20
2018-01-08T19:06:38.577Z,23.75
2018-01-08T19:09:06.313Z,22.00
2018-01-08T19:11:34.042Z,26.60
2018-01-08T19:14:01.762Z,24.27
2018-01-08T19:16:30.263Z,24.10
2018-01-08T19:18:57.998Z,26.58
2018-01-08T19:21:26.518Z,32.58
2018-01-08T19:23:54.244Z,27.65
2018-01-08T19:26:22.075Z,27.58
2018-01-08T19:28:49.798Z,26.55
2018-01-08T19:31:17.532Z,25.85
2018-01-08T19:33:45.249Z,23.77
2018-01-08T19:36:12.982Z,26.45
2018-01-08T19:38:41.466Z,24.45
2018-01-08T19:41:09.226Z,31.37
2018-01-08T19:43:37.729Z,24.25
2018-01-08T19:46:05.523Z,23.85
2018-01-08T19:48:33.256Z,20.98
2018-01-08T19:51:00.995Z,25.17
2018-01-08T19:53:31.529Z,23.77
2018-01-08T19:55:59.379Z,27.40
2018-01-08T19:58:27.877Z,22.45
2018-01-08T20:00:56.516Z,24.33
2018-01-08T20:03:24.382Z,25.27
2018-01-08T20:05:52.250Z,27.25
2018-01-08T20:08:20.121Z,27.70
2018-01-08T20:10:47.986Z,25.40
2018-01-08T20:13:15.715Z,20.70
2018-01-08T20:15:45.468Z,23.35
2018-01-08T20:18:14.013Z,22.48
2018-01-08T20:20:41.745Z,22.08
2018-01-08T20:23:10.639Z,23.67
2018-01-08T20:25:39.133Z,25.98
2018-01-08T20:28:06.863Z,24.83
2018-01-08T20:30:34.589Z,25.02
2018-01-08T20:33:02.319Z,22.80
2018-01-08T20:35:30.899Z,20.83
2018-01-08T20:37:59.394Z,19.48
2018-01-08T20:40:27.865Z,22.42
2018-01-08T20:42:55.638Z,23.50
2018-01-08T20:45:23.362Z,19.87
2018-01-08T20:47:51.092Z,21.27
2018-01-08T20:50:18.832Z,20.02
2018-01-08T20:52:46.554Z,29.15
2018-01-08T20:55:16.374Z,22.13
2018-01-08T20:57:44.106Z,25.35
2018-01-08T21:00:11.841Z,22.92
2018-01-08T21:02:39.565Z,23.80
2018-01-08T21:05:07.291Z,25.70
2018-01-08T21:07:35.026Z,24.00
2018-01-08T21:10:03.526Z,20.40
2018-01-08T21:12:31.269Z,19.77
2018-01-08T21:14:59.916Z,24.30
2018-01-08T21:17:27.654Z,24.30
2018-01-08T21:19:55.544Z,26.23
2018-01-08T21:22:23.413Z,21.40
2018-01-08T21:24:51.162Z,21.77
2018-01-08T21:27:18.894Z,19.40
2018-01-08T21:29:46.624Z,20.88
2018-01-08T21:32:14.421Z,21.25
2018-01-08T21:34:42.339Z,22.13
2018-01-08T21:37:10.062Z,21.95
2018-01-08T21:39:37.967Z,17.50
2018-01-08T21:42:05.839Z,14.52
2018-01-08T21:44:33.702Z,11.05
2018-01-08T21:49:35.351Z,10.75
2018-01-08T21:52:03.079Z,13.18
2018-01-08T21:54:31.596Z,14.45
2018-01-08T21:56:59.490Z,14.65
2018-01-08T21:59:27.206Z,13.65
2018-01-08T22:01:54.931Z,11.70
2018-01-08T22:04:22.649Z,11.43
2018-01-08T22:06:50.386Z,10.77
2018-01-08T22:09:18.878Z,13.32
2018-01-08T22:11:47.366Z,10.30
2018-01-08T22:14:15.089Z,12.43
2018-01-08T22:16:42.941Z,11.57
2018-01-08T22:19:10.807Z,10.45
2018-01-08T22:21:38.679Z,11.32
2018-01-08T22:24:07.225Z,9.85
2018-01-08T22:26:34.947Z,10.10
2018-01-08T22:29:02.671Z,12.18
2018-01-08T22:31:30.385Z,10.82
2018-01-08T22:33:58.887Z,9.73
2018-01-08T22:36:26.699Z,12.77
2018-01-08T22:38:54.565Z,12.88
2018-01-08T22:41:22.303Z,10.98
2018-01-08T22:43:50.096Z,12.02
2018-01-08T22:46:17.819Z,11.73
2018-01-08T22:48:45.541Z,11.43
2018-01-08T22:51:13.465Z,9.68
2018-01-08T22:53:41.177Z,13.95
2018-01-08T22:56:08.882Z,10.95
2018-01-08T22:58:36.617Z,11.12
2018-01-08T23:01:04.337Z,10.95
2018-01-08T23:03:32.214Z,10.82
2018-01-08T23:06:00.083Z,10.40
2018-01-08T23:08:27.949Z,10.40
2018-01-08T23:10:55.678Z,14.10
2018-01-08T23:13:23.398Z,12.60
2018-01-08T23:15:51.143Z,11.32
2018-01-08T23:18:18.869Z,11.38
2018-01-08T23:20:46.645Z,14.23
2018-01-08T23:23:14.375Z,10.52
2018-01-08T23:25:42.872Z,8.98
2018-01-08T23:28:10.601Z,10.35
2018-01-08T23:30:38.449Z,9.93
2018-01-08T23:33:06.172Z,10.48
2018-01-08T23:35:33.917Z,9.40
2018-01-08T23:38:02.421Z,11.73
2018-01-08T23:40:30.146Z,12.75
2018-01-08T23:42:57.879Z,12.73
2018-01-08T23:45:25.593Z,9.70
2018-01-08T23:47:54.109Z,12.00
2018-01-08T23:50:21.821Z,11.12
2018-01-08T23:52:49.550Z,11.45
2018-01-08T23:55:17.354Z,12.30
2018-01-08T23:57:45.093Z,10.57
